createdAt,value
2018-07-15T00:00:30.970Z,17.90
2018-07-15T00:02:59.854Z,17.90
2018-07-15T00:05:28.625Z,17.80
2018-07-15T00:07:57.524Z,17.80
2018-07-15T00:10:26.453Z,17.70
2018-07-15T00:17:52.333Z,17.60
2018-07-15T00:20:21.288Z,17.60
2018-07-15T00:25:18.775Z,17.50
2018-07-15T00:27:47.605Z,17.50
2018-07-15T00:30:16.642Z,17.50
2018-07-15T00:32:45.651Z,17.50
2018-07-15T00:35:14.578Z,17.40
2018-07-15T00:37:43.455Z,17.40
2018-07-15T00:40:12.450Z,17.40
2018-07-15T00:42:41.339Z,17.30
2018-07-15T00:45:10.375Z,17.30
2018-07-15T00:50:07.836Z,17.20
2018-07-15T00:52:36.817Z,17.20
2018-07-15T00:55:06.179Z,17.20
2018-07-15T00:57:35.147Z,17.10
2018-07-15T01:00:04.198Z,17.10
2018-07-15T01:02:33.110Z,17.10
2018-07-15T01:05:02.084Z,17.10
2018-07-15T01:07:31.021Z,17.10
2018-07-15T01:10:00.895Z,17.00
2018-07-15T01:12:29.786Z,17.00
2018-07-15T01:14:58.663Z,17.00
2018-07-15T01:17:27.553Z,17.00
2018-07-15T01:19:56.395Z,16.90
2018-07-15T01:22:25.230Z,16.90
2018-07-15T01:24:55.005Z,16.90
2018-07-15T01:27:23.858Z,16.80
2018-07-15T01:29:52.782Z,16.80
2018-07-15T01:32:21.641Z,16.80
2018-07-15T01:34:50.441Z,16.70
2018-07-15T01:37:19.373Z,16.70
2018-07-15T01:42:16.726Z,16.70
2018-07-15T01:44:45.680Z,16.60
2018-07-15T01:47:14.666Z,16.60
2018-07-15T01:49:43.569Z,16.60
2018-07-15T01:52:12.365Z,16.50
2018-07-15T01:54:41.221Z,16.50
2018-07-15T01:57:10.030Z,16.50
2018-07-15T01:59:38.813Z,16.50
2018-07-15T02:07:16.388Z,16.40
2018-07-15T02:09:47.531Z,16.40
2018-07-15T02:12:16.496Z,16.40
2018-07-15T02:14:45.503Z,16.30
2018-07-15T02:17:14.587Z,16.30
2018-07-15T02:19:43.680Z,16.30
2018-07-15T02:22:12.670Z,16.30
2018-07-15T02:24:41.571Z,16.30
2018-07-15T02:34:36.036Z,16.20
2018-07-15T02:39:33.544Z,16.20
2018-07-15T02:44:30.915Z,16.10
2018-07-15T02:46:59.773Z,16.10
2018-07-15T02:49:28.733Z,16.00
2018-07-15T02:51:57.695Z,16.00
2018-07-15T02:54:26.445Z,15.90
2018-07-15T02:56:55.366Z,15.90
2018-07-15T02:59:24.261Z,15.90
2018-07-15T03:01:53.076Z,15.90
2018-07-15T03:04:22.049Z,15.90
2018-07-15T03:06:50.909Z,15.90
2018-07-15T03:11:48.389Z,15.80
2018-07-15T03:14:17.353Z,15.70
2018-07-15T03:16:46.300Z,15.70
2018-07-15T03:19:15.139Z,15.70
2018-07-15T03:21:44.109Z,15.70
2018-07-15T03:24:13.101Z,15.70
2018-07-15T03:26:41.937Z,15.70
2018-07-15T03:29:10.841Z,15.70
2018-07-15T03:31:39.695Z,15.70
2018-07-15T03:36:37.677Z,15.70
2018-07-15T03:39:07.357Z,15.70
2018-07-15T03:41:36.257Z,15.60
2018-07-15T03:44:05.727Z,15.60
2018-07-15T03:46:34.987Z,15.60
2018-07-15T03:49:03.906Z,15.60
2018-07-15T03:54:02.195Z,15.60
2018-07-15T03:56:31.026Z,15.50
2018-07-15T03:58:59.901Z,15.50
2018-07-15T04:01:28.715Z,15.50
2018-07-15T04:03:57.693Z,15.50
2018-07-15T04:06:27.102Z,15.50
2018-07-15T04:08:56.579Z,15.60
2018-07-15T04:11:25.384Z,15.60
2018-07-15T04:13:54.961Z,15.60
2018-07-15T04:16:23.829Z,15.60
2018-07-15T04:18:53.255Z,15.60
2018-07-15T04:23:50.705Z,15.60
2018-07-15T04:26:19.696Z,15.70
2018-07-15T04:28:48.545Z,15.70
2018-07-15T04:31:17.513Z,15.70
2018-07-15T04:33:46.564Z,15.70
2018-07-15T04:36:15.507Z,15.80
2018-07-15T04:41:12.911Z,15.80
2018-07-15T04:43:41.886Z,15.80
2018-07-15T04:46:10.712Z,15.90
2018-07-15T04:48:39.504Z,15.90
2018-07-15T04:51:08.576Z,15.90
2018-07-15T04:53:37.557Z,15.90
2018-07-15T04:56:06.509Z,16.00
2018-07-15T05:01:04.114Z,16.00
2018-07-15T05:03:32.999Z,16.00
2018-07-15T05:08:30.528Z,16.20
2018-07-15T05:10:59.537Z,16.20
2018-07-15T05:15:56.815Z,16.30
2018-07-15T05:18:25.823Z,16.40
2018-07-15T05:23:23.239Z,16.50
2018-07-15T05:25:52.101Z,16.50
2018-07-15T05:28:20.969Z,16.50
2018-07-15T05:33:18.495Z,16.90
2018-07-15T05:38:15.707Z,20.10
2018-07-15T05:43:13.409Z,23.60
2018-07-15T05:50:40.514Z,26.10
2018-07-15T05:53:09.610Z,27.30
2018-07-15T05:55:38.535Z,29.00
2018-07-15T05:58:07.483Z,29.00
2018-07-15T06:00:36.225Z,29.90
2018-07-15T06:03:05.369Z,29.90
2018-07-15T06:05:34.335Z,30.70
2018-07-15T06:10:31.686Z,31.70
2018-07-15T06:13:01.324Z,32.50
2018-07-15T06:15:31.207Z,32.50
2018-07-15T06:18:00.081Z,32.80
2018-07-15T06:20:28.986Z,33.00
2018-07-15T06:25:26.258Z,33.20
2018-07-15T06:27:55.073Z,34.00
2018-07-15T06:30:23.898Z,34.20
2018-07-15T06:32:52.795Z,34.70
2018-07-15T06:35:21.721Z,35.00
2018-07-15T06:37:50.662Z,35.10
2018-07-15T06:40:19.605Z,35.60
2018-07-15T06:47:45.230Z,35.90
2018-07-15T06:50:14.141Z,36.00
2018-07-15T06:52:42.882Z,36.10
2018-07-15T06:55:11.626Z,36.10
2018-07-15T06:57:40.582Z,36.70
2018-07-15T07:02:37.948Z,37.20
2018-07-15T07:05:07.267Z,37.20
2018-07-15T07:07:36.096Z,37.80
2018-07-15T07:10:04.742Z,37.80
2018-07-15T07:12:33.573Z,37.90
2018-07-15T07:15:02.333Z,38.30
2018-07-15T07:17:31.023Z,38.80
2018-07-15T07:19:59.759Z,39.50
2018-07-15T07:22:28.415Z,40.30
2018-07-15T07:24:57.099Z,40.50
2018-07-15T07:27:25.819Z,40.60
2018-07-15T07:29:54.570Z,40.70
2018-07-15T07:34:51.693Z,41.00
2018-07-15T07:37:20.465Z,41.00
2018-07-15T07:39:49.130Z,40.70
2018-07-15T07:42:17.806Z,40.70
2018-07-15T07:44:46.550Z,40.60
2018-07-15T07:47:15.370Z,41.60
2018-07-15T07:49:44.046Z,41.60
2018-07-15T07:52:12.788Z,41.40
2018-07-15T07:54:41.585Z,42.00
2018-07-15T07:57:10.273Z,42.00
2018-07-15T07:59:39.005Z,41.30
2018-07-15T08:07:04.639Z,42.00
2018-07-15T08:12:01.802Z,43.10
2018-07-15T08:14:32.142Z,43.90
2018-07-15T08:19:29.730Z,44.10
2018-07-15T08:21:58.462Z,44.10
2018-07-15T08:24:27.489Z,44.60
2018-07-15T08:29:24.703Z,44.70
2018-07-15T08:31:53.407Z,45.30
2018-07-15T08:36:50.943Z,45.00
2018-07-15T08:39:19.675Z,44.50
2018-07-15T08:44:17.205Z,44.50
2018-07-15T08:46:46.449Z,44.80
2018-07-15T08:49:15.209Z,44.40
2018-07-15T08:51:44.250Z,44.90
2018-07-15T08:54:12.873Z,45.00
2018-07-15T08:56:41.565Z,44.50
2018-07-15T08:59:10.302Z,44.30
2018-07-15T09:01:39.039Z,44.60
2018-07-15T09:04:07.729Z,44.80
2018-07-15T09:06:36.513Z,45.10
2018-07-15T09:09:05.833Z,45.50
2018-07-15T09:11:34.603Z,45.70
2018-07-15T09:14:03.786Z,45.80
2018-07-15T09:16:33.209Z,46.30
2018-07-15T09:19:02.197Z,46.80
2018-07-15T09:21:31.057Z,46.70
2018-07-15T09:24:00.234Z,47.00
2018-07-15T09:28:57.466Z,47.10
2018-07-15T09:31:27.327Z,47.30
2018-07-15T09:33:56.009Z,47.30
2018-07-15T09:36:24.734Z,47.60
2018-07-15T09:41:22.650Z,47.10
2018-07-15T09:43:51.418Z,47.30
2018-07-15T09:46:21.182Z,47.40
2018-07-15T09:48:49.968Z,48.00
2018-07-15T09:51:18.797Z,47.70
2018-07-15T09:53:48.223Z,47.60
2018-07-15T09:56:16.892Z,47.60
2018-07-15T09:58:45.936Z,48.00
2018-07-15T10:03:44.063Z,48.70
2018-07-15T10:06:13.445Z,48.40
2018-07-15T10:08:44.917Z,47.50
2018-07-15T10:11:13.607Z,47.50
2018-07-15T10:16:10.794Z,48.00
2018-07-15T10:21:07.901Z,47.70
2018-07-15T10:23:36.659Z,47.40
2018-07-15T10:26:05.440Z,46.80
2018-07-15T10:28:34.229Z,46.90
2018-07-15T10:31:02.925Z,47.00
2018-07-15T10:33:31.642Z,47.40
2018-07-15T10:36:00.338Z,49.20
2018-07-15T10:40:57.548Z,46.80
2018-07-15T10:43:26.370Z,46.00
2018-07-15T10:45:55.130Z,46.00
2018-07-15T10:50:52.216Z,45.00
2018-07-15T10:53:20.986Z,45.00
2018-07-15T10:55:49.690Z,44.30
2018-07-15T10:58:18.352Z,43.60
2018-07-15T11:00:48.233Z,42.80
2018-07-15T11:08:14.333Z,41.30
2018-07-15T11:10:43.026Z,41.10
2018-07-15T11:13:11.722Z,40.80
2018-07-15T11:15:40.401Z,40.80
2018-07-15T11:18:09.250Z,40.60
2018-07-15T11:20:39.103Z,40.50
2018-07-15T11:23:07.805Z,40.20
2018-07-15T11:25:36.581Z,40.30
2018-07-15T11:28:05.389Z,39.90
2018-07-15T11:30:34.978Z,39.40
2018-07-15T11:33:03.695Z,38.90
2018-07-15T11:40:29.248Z,38.40
2018-07-15T11:42:57.946Z,38.20
2018-07-15T11:45:26.643Z,37.90
2018-07-15T11:47:55.345Z,37.30
2018-07-15T11:50:24.047Z,36.30
2018-07-15T11:52:52.870Z,36.20
2018-07-15T11:55:21.570Z,36.10
2018-07-15T11:57:50.301Z,36.10
2018-07-15T12:00:19.009Z,36.20
2018-07-15T12:02:47.749Z,36.30
2018-07-15T12:05:16.474Z,35.30
2018-07-15T12:07:45.221Z,34.80
2018-07-15T12:10:13.941Z,34.70
2018-07-15T12:12:42.705Z,34.70
2018-07-15T12:15:11.368Z,34.80
2018-07-15T12:20:08.490Z,34.50
2018-07-15T12:22:37.205Z,34.00
2018-07-15T12:25:05.868Z,34.00
2018-07-15T12:27:34.594Z,34.10
2018-07-15T12:32:31.702Z,33.90
2018-07-15T12:35:00.496Z,33.80
2018-07-15T12:37:29.235Z,33.80
2018-07-15T12:39:57.978Z,33.70
2018-07-15T12:42:27.161Z,33.50
2018-07-15T12:44:55.954Z,33.60
2018-07-15T12:47:24.670Z,33.50
2018-07-15T12:49:53.362Z,33.30
2018-07-15T12:52:22.080Z,33.10
2018-07-15T12:54:50.788Z,33.00
2018-07-15T12:57:19.556Z,33.00
2018-07-15T12:59:48.295Z,33.10
2018-07-15T13:02:17.012Z,32.90
2018-07-15T13:09:42.489Z,32.60
2018-07-15T13:12:11.226Z,32.50
2018-07-15T13:14:39.945Z,32.30
2018-07-15T13:17:08.637Z,32.00
2018-07-15T13:19:37.693Z,31.90
2018-07-15T13:22:06.543Z,32.00
2018-07-15T13:24:35.415Z,31.90
2018-07-15T13:27:04.120Z,31.80
2018-07-15T13:29:34.024Z,31.80
2018-07-15T13:32:02.713Z,31.50
2018-07-15T13:34:31.601Z,31.20
2018-07-15T13:37:00.284Z,30.90
2018-07-15T13:39:29.034Z,30.50
2018-07-15T13:41:57.934Z,30.40
2018-07-15T13:44:26.487Z,30.30
2018-07-15T13:46:55.202Z,30.30
2018-07-15T13:51:52.310Z,30.40
2018-07-15T13:54:21.011Z,30.40
2018-07-15T13:56:49.738Z,30.30
2018-07-15T14:01:46.789Z,29.80
2018-07-15T14:04:15.551Z,29.60
2018-07-15T14:06:45.194Z,29.50
2018-07-15T14:09:13.861Z,29.50
2018-07-15T14:11:42.570Z,29.60
2018-07-15T14:16:39.671Z,29.70
2018-07-15T14:19:08.389Z,29.70
2018-07-15T14:21:37.626Z,29.80
2018-07-15T14:29:03.189Z,29.60
2018-07-15T14:31:31.978Z,29.40
2018-07-15T14:34:00.622Z,29.30
2018-07-15T14:36:29.330Z,29.20
2018-07-15T14:38:58.939Z,29.10
2018-07-15T14:43:57.903Z,29.30
2018-07-15T14:46:26.623Z,29.30
2018-07-15T14:51:25.122Z,29.00
2018-07-15T14:53:54.573Z,29.10
2018-07-15T14:56:23.292Z,29.10
2018-07-15T14:58:52.052Z,28.90
2018-07-15T15:01:20.794Z,28.60
2018-07-15T15:06:17.937Z,28.50
2018-07-15T15:08:46.692Z,28.40
2018-07-15T15:11:15.417Z,28.40
2018-07-15T15:13:44.815Z,28.50
2018-07-15T15:18:42.541Z,28.20
2018-07-15T15:21:11.258Z,28.00
2018-07-15T15:23:40.693Z,27.90
2018-07-15T15:26:09.911Z,27.90
2018-07-15T15:33:39.069Z,28.40
2018-07-15T15:36:07.778Z,28.40
2018-07-15T15:38:40.479Z,28.30
2018-07-15T15:41:09.684Z,28.30
2018-07-15T15:43:38.386Z,28.30
2018-07-15T15:46:07.126Z,28.00
2018-07-15T15:48:35.849Z,27.80
2018-07-15T15:51:04.562Z,27.70
2018-07-15T15:56:01.671Z,27.60
2018-07-15T15:58:30.374Z,27.50
2018-07-15T16:00:59.073Z,27.80
2018-07-15T16:03:27.790Z,27.50
2018-07-15T16:05:56.514Z,27.40
2018-07-15T16:08:25.234Z,27.40
2018-07-15T16:10:53.905Z,27.40
2018-07-15T16:13:22.692Z,27.30
2018-07-15T16:15:51.375Z,27.30
2018-07-15T16:18:20.107Z,27.30
2018-07-15T16:20:48.856Z,27.20
2018-07-15T16:23:17.640Z,27.30
2018-07-15T16:28:14.664Z,27.40
2018-07-15T16:30:44.509Z,27.40
2018-07-15T16:33:13.258Z,27.30
2018-07-15T16:35:41.959Z,27.10
2018-07-15T16:38:10.677Z,27.20
2018-07-15T16:40:39.741Z,27.20
2018-07-15T16:43:08.450Z,27.10
2018-07-15T16:45:37.136Z,27.00
2018-07-15T16:48:05.889Z,27.00
2018-07-15T16:50:34.621Z,27.00
2018-07-15T16:53:03.367Z,27.00
2018-07-15T16:55:32.086Z,27.00
2018-07-15T16:58:00.847Z,27.00
2018-07-15T17:00:29.620Z,26.80
2018-07-15T17:02:58.866Z,26.70
2018-07-15T17:08:02.554Z,26.60
2018-07-15T17:10:31.298Z,26.60
2018-07-15T17:13:00.021Z,26.50
2018-07-15T17:15:28.744Z,26.40
2018-07-15T17:17:57.469Z,26.40
2018-07-15T17:20:26.159Z,26.40
2018-07-15T17:25:23.312Z,26.50
2018-07-15T17:27:52.014Z,26.40
2018-07-15T17:30:20.780Z,26.40
2018-07-15T17:32:49.510Z,26.40
2018-07-15T17:35:20.263Z,26.40
2018-07-15T17:37:48.930Z,26.40
2018-07-15T17:40:17.690Z,26.30
2018-07-15T17:45:15.374Z,26.10
2018-07-15T17:50:12.543Z,25.80
2018-07-15T17:52:41.259Z,25.80
2018-07-15T17:55:10.240Z,25.70
2018-07-15T17:57:38.893Z,25.70
2018-07-15T18:00:07.618Z,25.80
2018-07-15T18:02:36.345Z,25.80
2018-07-15T18:05:05.011Z,25.80
2018-07-15T18:07:33.781Z,25.80
2018-07-15T18:12:30.843Z,25.60
2018-07-15T18:14:59.528Z,25.50
2018-07-15T18:17:28.236Z,25.40
2018-07-15T18:19:57.148Z,25.40
2018-07-15T18:22:25.715Z,25.40
2018-07-15T18:29:51.148Z,25.30
2018-07-15T18:32:19.868Z,25.20
2018-07-15T18:34:48.590Z,25.20
2018-07-15T18:39:45.666Z,25.10
2018-07-15T18:42:14.454Z,25.10
2018-07-15T18:44:43.112Z,25.00
2018-07-15T18:47:11.767Z,25.00
2018-07-15T18:54:37.218Z,24.90
2018-07-15T18:57:06.069Z,24.90
2018-07-15T18:59:34.838Z,24.90
2018-07-15T19:04:31.946Z,24.80
2018-07-15T19:07:00.632Z,24.70
2018-07-15T19:09:29.297Z,24.70
2018-07-15T19:11:57.970Z,24.60
2018-07-15T19:14:26.709Z,24.60
2018-07-15T19:16:55.386Z,24.60
2018-07-15T19:19:24.149Z,24.50
2018-07-15T19:21:52.831Z,24.50
2018-07-15T19:24:21.521Z,24.50
2018-07-15T19:26:50.596Z,24.40
2018-07-15T19:29:19.625Z,24.40
2018-07-15T19:34:16.722Z,24.20
2018-07-15T19:36:45.479Z,24.20
2018-07-15T19:39:14.240Z,24.20
2018-07-15T19:41:42.973Z,24.10
2018-07-15T19:44:11.706Z,24.10
2018-07-15T19:46:40.442Z,24.00
2018-07-15T19:49:09.100Z,23.90
2018-07-15T19:51:37.772Z,23.90
2018-07-15T19:54:06.494Z,23.90
2018-07-15T19:56:35.224Z,23.80
2018-07-15T19:59:03.934Z,23.80
2018-07-15T20:01:32.614Z,23.70
2018-07-15T20:04:01.454Z,23.70
2018-07-15T20:06:30.140Z,23.70
2018-07-15T20:08:59.189Z,23.70
2018-07-15T20:11:28.018Z,23.60
2018-07-15T20:13:56.751Z,23.50
2018-07-15T20:16:26.132Z,23.50
2018-07-15T20:18:54.850Z,23.50
2018-07-15T20:21:23.535Z,23.50
2018-07-15T20:23:52.363Z,23.40
2018-07-15T20:26:21.088Z,23.40
2018-07-15T20:28:49.800Z,23.40
2018-07-15T20:31:18.673Z,23.40
2018-07-15T20:33:47.377Z,23.30
2018-07-15T20:36:16.201Z,23.20
2018-07-15T20:38:44.876Z,23.20
2018-07-15T20:41:13.762Z,23.20
2018-07-15T20:43:42.426Z,23.10
2018-07-15T20:46:12.290Z,23.10
2018-07-15T20:48:41.049Z,23.00
2018-07-15T20:51:09.872Z,23.00
2018-07-15T20:53:38.552Z,23.00
2018-07-15T20:56:07.378Z,22.90
2018-07-15T20:58:36.434Z,22.90
2018-07-15T21:01:05.356Z,22.80
2018-07-15T21:03:34.162Z,22.80
2018-07-15T21:06:02.866Z,22.70
2018-07-15T21:08:31.554Z,22.70
2018-07-15T21:11:00.255Z,22.70
2018-07-15T21:13:28.978Z,22.70
2018-07-15T21:15:58.687Z,22.60
2018-07-15T21:18:28.299Z,22.60
2018-07-15T21:20:57.053Z,22.60
2018-07-15T21:23:25.865Z,22.50
2018-07-15T21:25:54.717Z,22.50
2018-07-15T21:28:24.713Z,22.40
2018-07-15T21:35:50.757Z,22.30
2018-07-15T21:38:19.519Z,22.30
2018-07-15T21:40:48.357Z,22.20
2018-07-15T21:43:17.154Z,22.30
2018-07-15T21:45:45.919Z,22.30
2018-07-15T21:48:14.621Z,22.20
2018-07-15T21:50:43.372Z,22.20
2018-07-15T21:53:13.122Z,22.20
2018-07-15T21:55:41.948Z,22.10
2018-07-15T21:58:10.697Z,22.10
2018-07-15T22:00:39.504Z,22.10
2018-07-15T22:03:08.306Z,22.00
2018-07-15T22:05:37.017Z,22.00
2018-07-15T22:08:17.367Z,18.20
2018-07-15T22:10:47.365Z,21.90
2018-07-15T22:13:16.062Z,21.90
2018-07-15T22:15:44.803Z,21.80
2018-07-15T22:18:13.542Z,21.80
2018-07-15T22:20:42.225Z,21.80
2018-07-15T22:23:11.000Z,21.80
2018-07-15T22:25:39.706Z,21.70
2018-07-15T22:28:08.436Z,21.70
2018-07-15T22:30:37.224Z,21.60
2018-07-15T22:33:06.274Z,21.60
2018-07-15T22:35:34.973Z,21.60
2018-07-15T22:38:03.794Z,21.40
2018-07-15T22:40:32.591Z,21.40
2018-07-15T22:43:01.306Z,21.30
2018-07-15T22:45:30.066Z,21.10
2018-07-15T22:47:58.798Z,21.20
2018-07-15T22:50:27.490Z,21.10
2018-07-15T22:52:56.254Z,21.10
2018-07-15T22:55:24.957Z,21.10
2018-07-15T22:57:53.711Z,21.00
2018-07-15T23:00:22.481Z,21.00
2018-07-15T23:07:54.733Z,20.70
2018-07-15T23:10:23.422Z,20.70
2018-07-15T23:12:53.144Z,20.70
2018-07-15T23:15:21.918Z,20.70
2018-07-15T23:17:50.732Z,20.60
2018-07-15T23:27:44.757Z,20.50
2018-07-15T23:30:13.501Z,20.50
2018-07-15T23:40:07.484Z,20.30
2018-07-15T23:42:36.558Z,20.20
2018-07-15T23:45:05.699Z,20.20
2018-07-15T23:47:35.058Z,20.20
2018-07-15T23:50:03.993Z,20.10
2018-07-15T23:52:32.701Z,20.10
2018-07-15T23:55:02.378Z,20.10
2018-07-15T23:57:31.552Z,20.00
